Time;durP1;ratioP1;P1;durP2;ratioP2;P2;SDS_P1;SDS_P2;PMS_P1;PMS_P2;Temp;Humidity;BMP_temperature;BMP_pressure;BME280_temperature;BME280_humidity;BME280_pressure;Samples;Min_cycle;Max_cycle;Signal;HPM_P1;HPM_P2
2023/04/07 00:23:16;;;;;;;39.73;22.60;;;4.80;99.90;;;;;;4926428;28;20242;-83
2023/04/07 00:43:12;;;;;;;42.40;23.13;;;5.00;99.90;;;;;;4819251;29;20507;-86
2023/04/07 01:09:05;;;;;;;41.53;23.60;;;5.10;99.90;;;;;;4693174;29;20398;-82
2023/04/07 01:33:44;;;;;;;38.57;22.93;;;5.30;99.90;;;;;;4833556;29;20562;-83
2023/04/07 01:54:41;;;;;;;49.83;26.57;;;5.30;99.90;;;;;;4948141;28;20227;-84
2023/04/07 02:24:34;;;;;;;51.53;26.10;;;5.50;99.90;;;;;;4624178;30;20306;-81
2023/04/07 02:55:14;;;;;;;49.97;28.80;;;5.70;99.90;;;;;;6065661;23;20181;-81
2023/04/07 03:20:23;;;;;;;62.93;31.30;;;5.80;99.90;;;;;;5746802;24;20702;-82
2023/04/07 04:16:25;;;;;;;62.10;33.57;;;6.00;99.90;;;;;;5791620;24;20184;-82
2023/04/07 04:46:53;;;;;;;60.37;32.47;;;6.20;99.90;;;;;;5869116;24;20220;-83
2023/04/07 05:12:05;;;;;;;64.90;35.07;;;6.30;99.90;;;;;;5866944;24;20576;-84
2023/04/07 05:47:54;;;;;;;58.70;33.87;;;6.60;99.90;;;;;;5831172;24;20362;-84
2023/04/07 06:53:38;;;;;;;50.37;33.20;;;7.40;99.90;;;;;;5787688;24;20536;-83
2023/04/07 07:24:06;;;;;;;42.47;29.03;;;8.00;99.90;;;;;;5800297;24;20245;-85
2023/04/07 07:49:25;;;;;;;37.70;27.57;;;8.60;99.90;;;;;;5873734;24;20260;-85
2023/04/07 08:14:42;;;;;;;36.37;26.00;;;9.30;99.90;;;;;;5695511;24;20833;-86
2023/04/07 10:14:47;;;;;;;22.10;17.93;;;10.80;99.90;;;;;;6027973;23;20190;-87
2023/04/07 10:44:59;;;;;;;19.10;15.60;;;11.20;99.90;;;;;;6037527;23;20489;-83
2023/04/07 11:10:14;;;;;;;17.80;15.37;;;11.40;99.90;;;;;;5836753;24;20891;-84
2023/04/07 11:30:37;;;;;;;17.40;14.60;;;11.70;99.90;;;;;;5855249;24;20492;-86
2023/04/07 12:00:43;;;;;;;17.47;13.43;;;11.20;99.90;;;;;;5888015;24;20187;-90
2023/04/07 13:07:11;;;;;;;3.67;3.00;;;11.50;99.90;;;;;;5777697;24;20237;-84
2023/04/07 13:27:22;;;;;;;3.10;2.33;;;11.90;99.90;;;;;;5792482;24;20215;-83
2023/04/07 13:52:48;;;;;;;1.80;1.47;;;11.60;96.60;;;;;;5625682;24;20249;-83
2023/04/07 14:23:20;;;;;;;7.07;3.73;;;11.70;99.80;;;;;;5740397;24;20198;-82
2023/04/07 14:27:44;;;;;;;4.03;3.43;;;11.50;99.90;;;;;;5620437;24;21247;-87
2023/04/07 14:53:08;;;;;;;5.60;4.43;;;10.80;98.20;;;;;;5726982;23;20675;-83
2023/04/07 15:13:37;;;;;;;5.47;3.90;;;10.70;98.30;;;;;;5557132;24;20604;-83
2023/04/07 15:39:05;;;;;;;3.50;2.67;;;10.70;95.20;;;;;;5500495;25;20621;-81
2023/04/07 16:09:40;;;;;;;3.70;2.90;;;10.50;94.00;;;;;;5766476;23;20278;-82
2023/04/07 16:29:47;;;;;;;3.70;3.13;;;10.00;93.20;;;;;;5621447;24;20729;-81
2023/04/07 17:00:19;;;;;;;4.10;2.57;;;9.30;92.70;;;;;;5532627;25;20688;-82
2023/04/07 17:25:16;;;;;;;5.13;3.60;;;8.70;96.00;;;;;;5538454;24;20620;-81
2023/04/07 18:36:59;;;;;;;4.83;4.07;;;8.50;99.90;;;;;;5728037;24;20170;-84
2023/04/07 18:41:18;;;;;;;5.70;3.97;;;8.50;99.90;;;;;;5584598;24;20268;-83
2023/04/07 19:52:46;;;;;;;9.43;7.77;;;7.70;99.90;;;;;;5621459;24;20239;-84
2023/04/07 20:22:58;;;;;;;6.10;5.23;;;7.40;99.90;;;;;;5568472;24;20636;-83
2023/04/07 20:43:39;;;;;;;9.33;5.47;;;7.10;99.90;;;;;;5660423;24;20193;-85
2023/04/07 21:44:23;;;;;;;8.10;6.97;;;6.40;99.90;;;;;;5885159;23;20539;-83
2023/04/07 22:14:49;;;;;;;8.07;6.67;;;6.40;99.50;;;;;;5871473;23;20240;-82
2023/04/07 22:39:53;;;;;;;8.67;6.63;;;6.20;99.70;;;;;;5711136;24;20827;-85
2023/04/07 23:35:49;;;;;;;10.23;8.30;;;6.30;97.30;;;;;;5742851;23;20190;-81
